Time;durP1;ratioP1;P1;durP2;ratioP2;P2;SDS_P1;SDS_P2;PMS_P1;PMS_P2;Temp;Humidity;BMP_temperature;BMP_pressure;BME280_temperature;BME280_humidity;BME280_pressure;Samples;Min_cycle;Max_cycle;Signal;HPM_P1;HPM_P2
2021/01/29 00:00:58;;;;;;;1.8;1.55;;;;;;;7.4;100;94145.01;;;;
2021/01/29 00:01:59;;;;;;;1.8;1.55;;;;;;;7.4;100;94145.01;;;;
2021/01/29 00:03:00;;;;;;;1.8;1.55;;;;;;;7.4;100;94145.01;;;;
2021/01/29 00:04:02;;;;;;;1.7;1.6;;;;;;;7.3;100;94140.33;;;;
2021/01/29 00:05:03;;;;;;;1.7;1.6;;;;;;;7.3;100;94140.33;;;;
2021/01/29 00:06:05;;;;;;;1.7;1.6;;;;;;;7.3;100;94140.33;;;;
2021/01/29 00:07:07;;;;;;;1.7;1.6;;;;;;;7.3;100;94140.33;;;;
2021/01/29 00:08:08;;;;;;;1.7;1.6;;;;;;;7.3;100;94140.33;;;;
2021/01/29 00:09:10;;;;;;;1.7;1.6;;;;;;;7.3;100;94140.33;;;;
2021/01/29 00:10:10;;;;;;;1.7;1.6;;;;;;;7.3;100;94140.33;;;;
2021/01/29 00:11:12;;;;;;;1.7;1.6;;;;;;;7.3;100;94140.33;;;;
2021/01/29 00:12:13;;;;;;;1.7;1.6;;;;;;;7.3;100;94140.33;;;;
2021/01/29 00:13:14;;;;;;;1.7;1.6;;;;;;;7.3;100;94140.33;;;;
2021/01/29 00:14:16;;;;;;;1.7;1.6;;;;;;;7.3;100;94140.33;;;;
2021/01/29 00:15:16;;;;;;;1.6;1.5;;;;;;;7.32;100;94137.39;;;;
2021/01/29 00:16:20;;;;;;;1.6;1.5;;;;;;;7.32;100;94137.39;;;;
2021/01/29 00:17:21;;;;;;;1.6;1.5;;;;;;;7.32;100;94137.39;;;;
2021/01/29 00:18:21;;;;;;;1.6;1.5;;;;;;;7.32;100;94137.39;;;;
2021/01/29 00:19:22;;;;;;;1.6;1.5;;;;;;;7.32;100;94137.39;;;;
2021/01/29 00:20:23;;;;;;;1.6;1.5;;;;;;;7.32;100;94137.39;;;;
2021/01/29 00:21:27;;;;;;;1.6;1.5;;;;;;;7.32;100;94137.39;;;;
2021/01/29 00:22:27;;;;;;;1.6;1.5;;;;;;;7.32;100;94137.39;;;;
2021/01/29 00:23:28;;;;;;;1.6;1.5;;;;;;;7.32;100;94137.39;;;;
2021/01/29 00:24:28;;;;;;;1.6;1.5;;;;;;;7.32;100;94137.39;;;;
2021/01/29 00:25:29;;;;;;;1.8;1.7;;;;;;;7.33;100;94129.5;;;;
2021/01/29 00:26:31;;;;;;;1.8;1.7;;;;;;;7.33;100;94129.5;;;;
2021/01/29 00:27:32;;;;;;;1.8;1.7;;;;;;;7.33;100;94129.5;;;;
2021/01/29 00:28:32;;;;;;;1.8;1.7;;;;;;;7.33;100;94129.5;;;;
2021/01/29 00:29:33;;;;;;;1.8;1.7;;;;;;;7.33;100;94129.5;;;;
2021/01/29 00:30:33;;;;;;;1.8;1.7;;;;;;;7.33;100;94129.5;;;;
2021/01/29 00:31:37;;;;;;;1.8;1.7;;;;;;;7.33;100;94129.5;;;;
2021/01/29 00:32:38;;;;;;;1.8;1.7;;;;;;;7.33;100;94129.5;;;;
2021/01/29 00:33:38;;;;;;;1.8;1.7;;;;;;;7.33;100;94129.5;;;;
2021/01/29 00:34:39;;;;;;;1.8;1.7;;;;;;;7.33;100;94129.5;;;;
2021/01/29 00:35:39;;;;;;;1.8;1.7;;;;;;;7.33;100;94129.5;;;;
2021/01/29 00:36:41;;;;;;;2.2;1.7;;;;;;;7.37;100;94129.41;;;;
2021/01/29 00:37:41;;;;;;;2.2;1.7;;;;;;;7.37;100;94129.41;;;;
2021/01/29 00:38:41;;;;;;;2.2;1.7;;;;;;;7.37;100;94129.41;;;;
2021/01/29 00:39:42;;;;;;;2.2;1.7;;;;;;;7.37;100;94129.41;;;;
2021/01/29 00:40:42;;;;;;;2.2;1.7;;;;;;;7.37;100;94129.41;;;;
2021/01/29 00:41:43;;;;;;;2.2;1.7;;;;;;;7.37;100;94129.41;;;;
2021/01/29 00:42:44;;;;;;;2.2;1.7;;;;;;;7.37;100;94129.41;;;;
2021/01/29 00:43:45;;;;;;;2.2;1.7;;;;;;;7.37;100;94129.41;;;;
2021/01/29 00:44:46;;;;;;;2.2;1.7;;;;;;;7.37;100;94129.41;;;;
2021/01/29 00:45:46;;;;;;;2.2;1.7;;;;;;;7.37;100;94129.41;;;;
2021/01/29 00:46:47;;;;;;;2.15;1.6;;;;;;;7.4;100;94121.26;;;;
2021/01/29 00:47:47;;;;;;;2.15;1.6;;;;;;;7.4;100;94121.26;;;;
2021/01/29 00:48:48;;;;;;;2.15;1.6;;;;;;;7.4;100;94121.26;;;;
2021/01/29 00:49:49;;;;;;;2.15;1.6;;;;;;;7.4;100;94121.26;;;;
2021/01/29 00:50:49;;;;;;;2.15;1.6;;;;;;;7.4;100;94121.26;;;;
2021/01/29 00:51:50;;;;;;;2.15;1.6;;;;;;;7.4;100;94121.26;;;;
2021/01/29 00:52:50;;;;;;;2.15;1.6;;;;;;;7.4;100;94121.26;;;;
2021/01/29 00:53:51;;;;;;;2.15;1.6;;;;;;;7.4;100;94121.26;;;;
2021/01/29 00:54:52;;;;;;;2.15;1.6;;;;;;;7.4;100;94121.26;;;;
2021/01/29 00:55:52;;;;;;;2.15;1.6;;;;;;;7.4;100;94121.26;;;;
2021/01/29 00:56:52;;;;;;;2.15;1.6;;;;;;;7.4;100;94121.26;;;;
2021/01/29 00:57:53;;;;;;;1.6;1.5;;;;;;;7.31;100;94114.26;;;;
2021/01/29 00:58:54;;;;;;;1.6;1.5;;;;;;;7.31;100;94114.26;;;;
2021/01/29 00:59:54;;;;;;;1.6;1.5;;;;;;;7.31;100;94114.26;;;;
2021/01/29 01:00:54;;;;;;;1.6;1.5;;;;;;;7.31;100;94114.26;;;;
2021/01/29 01:01:55;;;;;;;1.6;1.5;;;;;;;7.31;100;94114.26;;;;
2021/01/29 01:02:56;;;;;;;1.6;1.5;;;;;;;7.31;100;94114.26;;;;
2021/01/29 01:03:56;;;;;;;1.6;1.5;;;;;;;7.31;100;94114.26;;;;
2021/01/29 01:04:57;;;;;;;1.6;1.5;;;;;;;7.31;100;94114.26;;;;
2021/01/29 01:05:57;;;;;;;1.6;1.5;;;;;;;7.31;100;94114.26;;;;
2021/01/29 01:06:58;;;;;;;1.6;1.5;;;;;;;7.31;100;94114.26;;;;
2021/01/29 01:07:58;;;;;;;1.7;1.6;;;;;;;7.06;100;94099.91;;;;
2021/01/29 01:08:59;;;;;;;1.7;1.6;;;;;;;7.06;100;94099.91;;;;
2021/01/29 01:09:59;;;;;;;1.7;1.6;;;;;;;7.06;100;94099.91;;;;
2021/01/29 01:11:00;;;;;;;1.7;1.6;;;;;;;7.06;100;94099.91;;;;
2021/01/29 01:12:00;;;;;;;1.7;1.6;;;;;;;7.06;100;94099.91;;;;
2021/01/29 01:13:01;;;;;;;1.7;1.6;;;;;;;7.06;100;94099.91;;;;
2021/01/29 01:14:01;;;;;;;1.7;1.6;;;;;;;7.06;100;94099.91;;;;
2021/01/29 01:15:02;;;;;;;1.7;1.6;;;;;;;7.06;100;94099.91;;;;
2021/01/29 01:16:07;;;;;;;1.7;1.6;;;;;;;7.06;100;94099.91;;;;
2021/01/29 01:17:08;;;;;;;1.7;1.6;;;;;;;7.06;100;94099.91;;;;
2021/01/29 01:18:08;;;;;;;1.7;1.6;;;;;;;7.06;100;94099.91;;;;
2021/01/29 01:19:10;;;;;;;1.45;1.35;;;;;;;6.85;100;94090.31;;;;
2021/01/29 01:20:10;;;;;;;1.45;1.35;;;;;;;6.85;100;94090.31;;;;
2021/01/29 01:21:15;;;;;;;1.45;1.35;;;;;;;6.85;100;94090.31;;;;
2021/01/29 01:22:16;;;;;;;1.45;1.35;;;;;;;6.85;100;94090.31;;;;
2021/01/29 01:23:17;;;;;;;1.45;1.35;;;;;;;6.85;100;94090.31;;;;
2021/01/29 01:24:17;;;;;;;1.45;1.35;;;;;;;6.85;100;94090.31;;;;
2021/01/29 01:25:18;;;;;;;1.45;1.35;;;;;;;6.85;100;94090.31;;;;
2021/01/29 01:26:18;;;;;;;1.45;1.35;;;;;;;6.85;100;94090.31;;;;
2021/01/29 01:27:19;;;;;;;1.45;1.35;;;;;;;6.85;100;94090.31;;;;
2021/01/29 01:28:19;;;;;;;1.45;1.35;;;;;;;6.85;100;94090.31;;;;
2021/01/29 01:29:20;;;;;;;1.3;1.2;;;;;;;6.72;100;94074.92;;;;
2021/01/29 01:30:20;;;;;;;1.3;1.2;;;;;;;6.72;100;94074.92;;;;
2021/01/29 01:31:24;;;;;;;1.3;1.2;;;;;;;6.72;100;94074.92;;;;
2021/01/29 01:32:25;;;;;;;1.3;1.2;;;;;;;6.72;100;94074.92;;;;
2021/01/29 01:33:25;;;;;;;1.3;1.2;;;;;;;6.72;100;94074.92;;;;
2021/01/29 01:34:26;;;;;;;1.3;1.2;;;;;;;6.72;100;94074.92;;;;
2021/01/29 01:35:26;;;;;;;1.3;1.2;;;;;;;6.72;100;94074.92;;;;
2021/01/29 01:36:27;;;;;;;1.3;1.2;;;;;;;6.72;100;94074.92;;;;
2021/01/29 01:37:28;;;;;;;1.3;1.2;;;;;;;6.72;100;94074.92;;;;
2021/01/29 01:38:28;;;;;;;1.3;1.2;;;;;;;6.72;100;94074.92;;;;
2021/01/29 01:39:29;;;;;;;1.3;1.2;;;;;;;6.72;100;94074.92;;;;
2021/01/29 01:40:29;;;;;;;1.3;1.2;;;;;;;6.75;100;94067.31;;;;
2021/01/29 01:41:36;;;;;;;1.3;1.2;;;;;;;6.75;100;94067.31;;;;
2021/01/29 01:42:37;;;;;;;1.3;1.2;;;;;;;6.75;100;94067.31;;;;
2021/01/29 01:43:37;;;;;;;1.3;1.2;;;;;;;6.75;100;94067.31;;;;
2021/01/29 01:44:38;;;;;;;1.3;1.2;;;;;;;6.75;100;94067.31;;;;
2021/01/29 01:45:43;;;;;;;1.3;1.2;;;;;;;6.75;100;94067.31;;;;
2021/01/29 01:46:56;;;;;;;1.3;1.2;;;;;;;6.75;100;94067.31;;;;
2021/01/29 01:48:00;;;;;;;1.3;1.2;;;;;;;6.75;100;94067.31;;;;
2021/01/29 01:49:04;;;;;;;1.3;1.2;;;;;;;6.75;100;94067.31;;;;
2021/01/29 01:50:09;;;;;;;1.3;1.2;;;;;;;6.75;100;94067.31;;;;
2021/01/29 01:51:16;;;;;;;1.55;1.05;;;;;;;6.93;100;94049.65;;;;
2021/01/29 01:52:25;;;;;;;1.55;1.05;;;;;;;6.93;100;94049.65;;;;
2021/01/29 01:53:30;;;;;;;1.55;1.05;;;;;;;6.93;100;94049.65;;;;
2021/01/29 01:54:36;;;;;;;1.55;1.05;;;;;;;6.93;100;94049.65;;;;
2021/01/29 01:55:43;;;;;;;1.55;1.05;;;;;;;6.93;100;94049.65;;;;
2021/01/29 01:56:45;;;;;;;1.55;1.05;;;;;;;6.93;100;94049.65;;;;
2021/01/29 01:57:49;;;;;;;1.55;1.05;;;;;;;6.93;100;94049.65;;;;
2021/01/29 01:58:54;;;;;;;1.55;1.05;;;;;;;6.93;100;94049.65;;;;
2021/01/29 02:00:00;;;;;;;1.55;1.05;;;;;;;6.93;100;94049.65;;;;
2021/01/29 02:01:05;;;;;;;1.55;1.05;;;;;;;6.93;100;94049.65;;;;
2021/01/29 02:02:06;;;;;;;1;1;;;;;;;7.14;100;94007.86;;;;
2021/01/29 02:03:09;;;;;;;1;1;;;;;;;7.14;100;94007.86;;;;
2021/01/29 02:04:16;;;;;;;1;1;;;;;;;7.14;100;94007.86;;;;
2021/01/29 02:05:18;;;;;;;1;1;;;;;;;7.14;100;94007.86;;;;
2021/01/29 02:06:23;;;;;;;1;1;;;;;;;7.14;100;94007.86;;;;
2021/01/29 02:07:24;;;;;;;1;1;;;;;;;7.14;100;94007.86;;;;
2021/01/29 02:08:35;;;;;;;1;1;;;;;;;7.14;100;94007.86;;;;
2021/01/29 02:09:38;;;;;;;1;1;;;;;;;7.14;100;94007.86;;;;
2021/01/29 02:10:40;;;;;;;1;1;;;;;;;7.14;100;94007.86;;;;
2021/01/29 02:11:40;;;;;;;1;1;;;;;;;7.14;100;94007.86;;;;
2021/01/29 02:12:41;;;;;;;0.9;0.9;;;;;;;7.24;100;93982.5;;;;
2021/01/29 02:13:41;;;;;;;0.9;0.9;;;;;;;7.24;100;93982.5;;;;
2021/01/29 02:14:42;;;;;;;0.9;0.9;;;;;;;7.24;100;93982.5;;;;
2021/01/29 02:15:42;;;;;;;0.9;0.9;;;;;;;7.24;100;93982.5;;;;
2021/01/29 02:16:49;;;;;;;0.9;0.9;;;;;;;7.24;100;93982.5;;;;
2021/01/29 02:17:55;;;;;;;0.9;0.9;;;;;;;7.24;100;93982.5;;;;
2021/01/29 02:19:07;;;;;;;0.9;0.9;;;;;;;7.24;100;93982.5;;;;
2021/01/29 02:20:53;;;;;;;0.9;0.9;;;;;;;7.24;100;93982.5;;;;
2021/01/29 02:22:30;;;;;;;0.9;0.9;;;;;;;7.24;100;93982.5;;;;
2021/01/29 02:24:08;;;;;;;1;0.9;;;;;;;7.33;100;93971.09;;;;
2021/01/29 02:26:03;;;;;;;1;0.9;;;;;;;7.33;100;93971.09;;;;
2021/01/29 02:27:44;;;;;;;1;0.9;;;;;;;7.33;100;93971.09;;;;
2021/01/29 02:28:49;;;;;;;1;0.9;;;;;;;7.33;100;93971.09;;;;
2021/01/29 02:30:16;;;;;;;1;0.9;;;;;;;7.33;100;93971.09;;;;
2021/01/29 02:31:31;;;;;;;1;0.9;;;;;;;7.33;100;93971.09;;;;
2021/01/29 02:32:47;;;;;;;1;0.9;;;;;;;7.33;100;93971.09;;;;
2021/01/29 02:34:35;;;;;;;1.05;1.05;;;;;;;7.44;100;93970.68;;;;
2021/01/29 02:36:02;;;;;;;1.05;1.05;;;;;;;7.44;100;93970.68;;;;
2021/01/29 02:37:46;;;;;;;1.05;1.05;;;;;;;7.44;100;93970.68;;;;
2021/01/29 02:39:05;;;;;;;1.05;1.05;;;;;;;7.44;100;93970.68;;;;
2021/01/29 02:40:20;;;;;;;1.05;1.05;;;;;;;7.44;100;93970.68;;;;
2021/01/29 02:41:27;;;;;;;1.05;1.05;;;;;;;7.44;100;93970.68;;;;
2021/01/29 02:42:47;;;;;;;1.05;1.05;;;;;;;7.44;100;93970.68;;;;
2021/01/29 02:43:58;;;;;;;1.05;1.05;;;;;;;7.44;100;93970.68;;;;
2021/01/29 02:45:10;;;;;;;1;1;;;;;;;7.58;100;93948.71;;;;
2021/01/29 02:46:21;;;;;;;1;1;;;;;;;7.58;100;93948.71;;;;
2021/01/29 02:47:29;;;;;;;1;1;;;;;;;7.58;100;93948.71;;;;
2021/01/29 02:48:35;;;;;;;1;1;;;;;;;7.58;100;93948.71;;;;
2021/01/29 02:49:53;;;;;;;1;1;;;;;;;7.58;100;93948.71;;;;
2021/01/29 02:51:05;;;;;;;1;1;;;;;;;7.58;100;93948.71;;;;
2021/01/29 02:52:12;;;;;;;1;1;;;;;;;7.58;100;93948.71;;;;
2021/01/29 02:53:19;;;;;;;1;1;;;;;;;7.58;100;93948.71;;;;
2021/01/29 02:54:45;;;;;;;1;1;;;;;;;7.64;100;93924.88;;;;
2021/01/29 02:55:53;;;;;;;1;1;;;;;;;7.64;100;93924.88;;;;
2021/01/29 02:57:03;;;;;;;1;1;;;;;;;7.64;100;93924.88;;;;
2021/01/29 02:58:11;;;;;;;1;1;;;;;;;7.64;100;93924.88;;;;
2021/01/29 02:59:20;;;;;;;1;1;;;;;;;7.64;100;93924.88;;;;
2021/01/29 03:00:28;;;;;;;1;1;;;;;;;7.64;100;93924.88;;;;
2021/01/29 03:01:36;;;;;;;1;1;;;;;;;7.64;100;93924.88;;;;
2021/01/29 03:02:43;;;;;;;1;1;;;;;;;7.64;100;93924.88;;;;
2021/01/29 03:03:49;;;;;;;1;1;;;;;;;7.64;100;93924.88;;;;
2021/01/29 03:04:56;;;;;;;1;1;;;;;;;7.64;100;93924.88;;;;
2021/01/29 03:06:04;;;;;;;1.1;1;;;;;;;7.6;100;93916.52;;;;
2021/01/29 03:07:13;;;;;;;1.1;1;;;;;;;7.6;100;93916.52;;;;
2021/01/29 03:08:19;;;;;;;1.1;1;;;;;;;7.6;100;93916.52;;;;
2021/01/29 03:09:25;;;;;;;1.1;1;;;;;;;7.6;100;93916.52;;;;
2021/01/29 03:10:31;;;;;;;1.1;1;;;;;;;7.6;100;93916.52;;;;
2021/01/29 03:11:37;;;;;;;1.1;1;;;;;;;7.6;100;93916.52;;;;
2021/01/29 03:12:41;;;;;;;1.1;1;;;;;;;7.6;100;93916.52;;;;
2021/01/29 03:13:47;;;;;;;1.1;1;;;;;;;7.6;100;93916.52;;;;
2021/01/29 03:14:56;;;;;;;1.1;1;;;;;;;7.6;100;93916.52;;;;
2021/01/29 03:16:06;;;;;;;0.9;0.9;;;;;;;7.51;100;93904.18;;;;
2021/01/29 03:17:12;;;;;;;0.9;0.9;;;;;;;7.51;100;93904.18;;;;
2021/01/29 03:18:18;;;;;;;0.9;0.9;;;;;;;7.51;100;93904.18;;;;
2021/01/29 03:19:24;;;;;;;0.9;0.9;;;;;;;7.51;100;93904.18;;;;
2021/01/29 03:20:30;;;;;;;0.9;0.9;;;;;;;7.51;100;93904.18;;;;
2021/01/29 03:21:33;;;;;;;0.9;0.9;;;;;;;7.51;100;93904.18;;;;
2021/01/29 03:22:37;;;;;;;0.9;0.9;;;;;;;7.51;100;93904.18;;;;
2021/01/29 03:23:43;;;;;;;0.9;0.9;;;;;;;7.51;100;93904.18;;;;
2021/01/29 03:24:50;;;;;;;0.9;0.9;;;;;;;7.51;100;93904.18;;;;
2021/01/29 03:25:55;;;;;;;0.9;0.9;;;;;;;7.51;100;93904.18;;;;
2021/01/29 03:26:59;;;;;;;1;0.9;;;;;;;7.38;100;93870.98;;;;
2021/01/29 03:28:04;;;;;;;1;0.9;;;;;;;7.38;100;93870.98;;;;
2021/01/29 03:29:11;;;;;;;1;0.9;;;;;;;7.38;100;93870.98;;;;
2021/01/29 03:30:17;;;;;;;1;0.9;;;;;;;7.38;100;93870.98;;;;
2021/01/29 03:31:21;;;;;;;1;0.9;;;;;;;7.38;100;93870.98;;;;
2021/01/29 03:32:24;;;;;;;1;0.9;;;;;;;7.38;100;93870.98;;;;
2021/01/29 03:33:28;;;;;;;1;0.9;;;;;;;7.38;100;93870.98;;;;
2021/01/29 03:34:33;;;;;;;1;0.9;;;;;;;7.38;100;93870.98;;;;
2021/01/29 03:35:39;;;;;;;1;0.9;;;;;;;7.38;100;93870.98;;;;
2021/01/29 03:36:43;;;;;;;1;0.9;;;;;;;7.38;100;93870.98;;;;
2021/01/29 03:37:49;;;;;;;1.1;1;;;;;;;7.38;100;93867.78;;;;
2021/01/29 03:38:58;;;;;;;1.1;1;;;;;;;7.38;100;93867.78;;;;
2021/01/29 03:40:08;;;;;;;1.1;1;;;;;;;7.38;100;93867.78;;;;
2021/01/29 03:41:11;;;;;;;1.1;1;;;;;;;7.38;100;93867.78;;;;
2021/01/29 03:42:19;;;;;;;1.1;1;;;;;;;7.38;100;93867.78;;;;
2021/01/29 03:43:30;;;;;;;1.1;1;;;;;;;7.38;100;93867.78;;;;
2021/01/29 03:44:37;;;;;;;1.1;1;;;;;;;7.38;100;93867.78;;;;
2021/01/29 03:45:47;;;;;;;1.1;1;;;;;;;7.38;100;93867.78;;;;
2021/01/29 03:46:57;;;;;;;1.1;1;;;;;;;7.38;100;93867.78;;;;
2021/01/29 03:48:03;;;;;;;1.2;1;;;;;;;7.38;100;93838.76;;;;
2021/01/29 03:49:15;;;;;;;1.2;1;;;;;;;7.38;100;93838.76;;;;
2021/01/29 03:50:25;;;;;;;1.2;1;;;;;;;7.38;100;93838.76;;;;
2021/01/29 03:51:40;;;;;;;1.2;1;;;;;;;7.38;100;93838.76;;;;
2021/01/29 03:52:51;;;;;;;1.2;1;;;;;;;7.38;100;93838.76;;;;
2021/01/29 03:54:04;;;;;;;1.2;1;;;;;;;7.38;100;93838.76;;;;
2021/01/29 03:55:14;;;;;;;1.2;1;;;;;;;7.38;100;93838.76;;;;
2021/01/29 03:56:27;;;;;;;1.2;1;;;;;;;7.38;100;93838.76;;;;
2021/01/29 03:57:37;;;;;;;1.2;1;;;;;;;7.38;100;93838.76;;;;
2021/01/29 03:58:48;;;;;;;1.65;1.2;;;;;;;7.3;100;93838.67;;;;
2021/01/29 03:59:59;;;;;;;1.65;1.2;;;;;;;7.3;100;93838.67;;;;
2021/01/29 04:01:11;;;;;;;1.65;1.2;;;;;;;7.3;100;93838.67;;;;
2021/01/29 04:02:22;;;;;;;1.65;1.2;;;;;;;7.3;100;93838.67;;;;
2021/01/29 04:03:29;;;;;;;1.65;1.2;;;;;;;7.3;100;93838.67;;;;
2021/01/29 04:04:37;;;;;;;1.65;1.2;;;;;;;7.3;100;93838.67;;;;
2021/01/29 04:05:54;;;;;;;1.65;1.2;;;;;;;7.3;100;93838.67;;;;
2021/01/29 04:07:04;;;;;;;1.65;1.2;;;;;;;7.3;100;93838.67;;;;
2021/01/29 04:08:14;;;;;;;1.65;1.2;;;;;;;7.3;100;93838.67;;;;
2021/01/29 04:09:26;;;;;;;1.35;1.2;;;;;;;7.31;100;93826.89;;;;
2021/01/29 04:10:38;;;;;;;1.35;1.2;;;;;;;7.31;100;93826.89;;;;
2021/01/29 04:11:43;;;;;;;1.35;1.2;;;;;;;7.31;100;93826.89;;;;
2021/01/29 04:12:49;;;;;;;1.35;1.2;;;;;;;7.31;100;93826.89;;;;
2021/01/29 04:13:56;;;;;;;1.35;1.2;;;;;;;7.31;100;93826.89;;;;
2021/01/29 04:15:02;;;;;;;1.35;1.2;;;;;;;7.31;100;93826.89;;;;
2021/01/29 04:16:09;;;;;;;1.35;1.2;;;;;;;7.31;100;93826.89;;;;
2021/01/29 04:17:15;;;;;;;1.35;1.2;;;;;;;7.31;100;93826.89;;;;
2021/01/29 04:18:25;;;;;;;1.35;1.2;;;;;;;7.31;100;93826.89;;;;
2021/01/29 04:19:30;;;;;;;1.35;1.2;;;;;;;7.31;100;93826.89;;;;
2021/01/29 04:20:34;;;;;;;1.25;1.1;;;;;;;7.27;100;93811;;;;
2021/01/29 04:21:40;;;;;;;1.25;1.1;;;;;;;7.27;100;93811;;;;
2021/01/29 04:22:50;;;;;;;1.25;1.1;;;;;;;7.27;100;93811;;;;
2021/01/29 04:23:54;;;;;;;1.25;1.1;;;;;;;7.27;100;93811;;;;
2021/01/29 04:24:59;;;;;;;1.25;1.1;;;;;;;7.27;100;93811;;;;
2021/01/29 04:26:05;;;;;;;1.25;1.1;;;;;;;7.27;100;93811;;;;
2021/01/29 04:27:11;;;;;;;1.25;1.1;;;;;;;7.27;100;93811;;;;
2021/01/29 04:28:15;;;;;;;1.25;1.1;;;;;;;7.27;100;93811;;;;
2021/01/29 04:29:18;;;;;;;1.25;1.1;;;;;;;7.27;100;93811;;;;
2021/01/29 04:30:24;;;;;;;1.25;1.1;;;;;;;7.27;100;93811;;;;
2021/01/29 04:31:29;;;;;;;1.1;1;;;;;;;7.27;100;93799.44;;;;
2021/01/29 04:32:31;;;;;;;1.1;1;;;;;;;7.27;100;93799.44;;;;
2021/01/29 04:33:38;;;;;;;1.1;1;;;;;;;7.27;100;93799.44;;;;
2021/01/29 04:34:43;;;;;;;1.1;1;;;;;;;7.27;100;93799.44;;;;
2021/01/29 04:35:48;;;;;;;1.1;1;;;;;;;7.27;100;93799.44;;;;
2021/01/29 04:36:52;;;;;;;1.1;1;;;;;;;7.27;100;93799.44;;;;
2021/01/29 04:37:56;;;;;;;1.1;1;;;;;;;7.27;100;93799.44;;;;
2021/01/29 04:39:06;;;;;;;1.1;1;;;;;;;7.27;100;93799.44;;;;
2021/01/29 04:40:13;;;;;;;1.1;1;;;;;;;7.27;100;93799.44;;;;
2021/01/29 04:41:31;;;;;;;1;0.8;;;;;;;7.26;100;93787.51;;;;
2021/01/29 04:42:48;;;;;;;1;0.8;;;;;;;7.26;100;93787.51;;;;
2021/01/29 04:48:07;;;;;;;1;0.8;;;;;;;7.26;100;93787.51;;;;
2021/01/29 04:49:16;;;;;;;1;0.8;;;;;;;7.26;100;93787.51;;;;
2021/01/29 04:50:24;;;;;;;1;0.8;;;;;;;7.26;100;93787.51;;;;
2021/01/29 04:51:34;;;;;;;1;0.8;;;;;;;7.26;100;93787.51;;;;
2021/01/29 04:53:25;;;;;;;1.1;0.75;;;;;;;7.23;100;93784.93;;;;
2021/01/29 04:54:44;;;;;;;1.1;0.75;;;;;;;7.23;100;93784.93;;;;
2021/01/29 04:56:09;;;;;;;1.1;0.75;;;;;;;7.23;100;93784.93;;;;
2021/01/29 05:01:36;;;;;;;1.1;0.75;;;;;;;7.23;100;93784.93;;;;
2021/01/29 05:02:52;;;;;;;1;0.9;;;;;;;7.13;100;93792.33;;;;
2021/01/29 05:05:32;;;;;;;1;0.9;;;;;;;7.13;100;93792.33;;;;
2021/01/29 05:07:18;;;;;;;1;0.9;;;;;;;7.13;100;93792.33;;;;
2021/01/29 05:08:34;;;;;;;1;0.9;;;;;;;7.13;100;93792.33;;;;
2021/01/29 05:09:46;;;;;;;1;0.9;;;;;;;7.13;100;93792.33;;;;
2021/01/29 05:11:07;;;;;;;1;0.9;;;;;;;7.13;100;93792.33;;;;
2021/01/29 05:12:21;;;;;;;1;0.9;;;;;;;7.13;100;93792.33;;;;
2021/01/29 05:14:12;;;;;;;0.7;0.7;;;;;;;6.98;100;93771.23;;;;
2021/01/29 05:15:24;;;;;;;0.7;0.7;;;;;;;6.98;100;93771.23;;;;
2021/01/29 05:17:54;;;;;;;0.7;0.7;;;;;;;6.98;100;93771.23;;;;
2021/01/29 05:23:18;;;;;;;0.7;0.7;;;;;;;6.98;100;93771.23;;;;
2021/01/29 05:24:38;;;;;;;1.05;0.6;;;;;;;6.79;100;93758.24;;;;
2021/01/29 05:26:51;;;;;;;1.05;0.6;;;;;;;6.79;100;93758.24;;;;
2021/01/29 05:28:28;;;;;;;1.05;0.6;;;;;;;6.79;100;93758.24;;;;
2021/01/29 05:29:43;;;;;;;1.05;0.6;;;;;;;6.79;100;93758.24;;;;
2021/01/29 05:30:59;;;;;;;1.05;0.6;;;;;;;6.79;100;93758.24;;;;
2021/01/29 05:32:16;;;;;;;1.05;0.6;;;;;;;6.79;100;93758.24;;;;
2021/01/29 05:33:35;;;;;;;1.05;0.6;;;;;;;6.79;100;93758.24;;;;
2021/01/29 05:34:51;;;;;;;1.1;1;;;;;;;6.62;100;93727.04;;;;
2021/01/29 05:36:07;;;;;;;1.1;1;;;;;;;6.62;100;93727.04;;;;
2021/01/29 05:37:25;;;;;;;1.1;1;;;;;;;6.62;100;93727.04;;;;
2021/01/29 05:39:27;;;;;;;1.1;1;;;;;;;6.62;100;93727.04;;;;
2021/01/29 05:40:37;;;;;;;1.1;1;;;;;;;6.62;100;93727.04;;;;
2021/01/29 05:41:48;;;;;;;1.1;1;;;;;;;6.62;100;93727.04;;;;
2021/01/29 05:42:59;;;;;;;1.1;1;;;;;;;6.62;100;93727.04;;;;
2021/01/29 05:44:22;;;;;;;1.1;1;;;;;;;6.62;100;93727.04;;;;
2021/01/29 05:45:39;;;;;;;0.7;0.7;;;;;;;6.49;100;93705.99;;;;
2021/01/29 05:46:53;;;;;;;0.7;0.7;;;;;;;6.49;100;93705.99;;;;
2021/01/29 05:48:08;;;;;;;0.7;0.7;;;;;;;6.49;100;93705.99;;;;
2021/01/29 05:49:20;;;;;;;0.7;0.7;;;;;;;6.49;100;93705.99;;;;
2021/01/29 05:50:23;;;;;;;0.7;0.7;;;;;;;6.49;100;93705.99;;;;
2021/01/29 05:51:38;;;;;;;0.7;0.7;;;;;;;6.49;100;93705.99;;;;
2021/01/29 05:52:54;;;;;;;0.7;0.7;;;;;;;6.49;100;93705.99;;;;
2021/01/29 05:54:07;;;;;;;0.7;0.7;;;;;;;6.49;100;93705.99;;;;
2021/01/29 05:55:34;;;;;;;0.7;0.7;;;;;;;6.49;100;93705.99;;;;
2021/01/29 05:56:50;;;;;;;2.6;1.1;;;;;;;6.4;100;93679.86;;;;
2021/01/29 05:58:15;;;;;;;2.6;1.1;;;;;;;6.4;100;93679.86;;;;
2021/01/29 05:59:35;;;;;;;2.6;1.1;;;;;;;6.4;100;93679.86;;;;
2021/01/29 06:00:49;;;;;;;2.6;1.1;;;;;;;6.4;100;93679.86;;;;
2021/01/29 06:02:06;;;;;;;2.6;1.1;;;;;;;6.4;100;93679.86;;;;
2021/01/29 06:03:24;;;;;;;2.6;1.1;;;;;;;6.4;100;93679.86;;;;
2021/01/29 06:04:36;;;;;;;2.6;1.1;;;;;;;6.4;100;93679.86;;;;
2021/01/29 06:06:10;;;;;;;2.6;1.1;;;;;;;6.4;100;93679.86;;;;
2021/01/29 06:07:33;;;;;;;0.95;0.85;;;;;;;6.33;100;93662.23;;;;
2021/01/29 06:08:53;;;;;;;0.95;0.85;;;;;;;6.33;100;93662.23;;;;
2021/01/29 06:10:43;;;;;;;0.95;0.85;;;;;;;6.33;100;93662.23;;;;
2021/01/29 06:11:58;;;;;;;0.95;0.85;;;;;;;6.33;100;93662.23;;;;
2021/01/29 06:13:12;;;;;;;0.95;0.85;;;;;;;6.33;100;93662.23;;;;
2021/01/29 06:14:43;;;;;;;0.95;0.85;;;;;;;6.33;100;93662.23;;;;
2021/01/29 06:18:32;;;;;;;1.2;0.95;;;;;;;6.27;100;93629.72;;;;
2021/01/29 06:19:58;;;;;;;1.2;0.95;;;;;;;6.27;100;93629.72;;;;
2021/01/29 06:21:42;;;;;;;1.2;0.95;;;;;;;6.27;100;93629.72;;;;
2021/01/29 06:23:00;;;;;;;1.2;0.95;;;;;;;6.27;100;93629.72;;;;
2021/01/29 06:24:14;;;;;;;1.2;0.95;;;;;;;6.27;100;93629.72;;;;
2021/01/29 06:25:42;;;;;;;1.2;0.95;;;;;;;6.27;100;93629.72;;;;
2021/01/29 06:28:05;;;;;;;1.2;0.95;;;;;;;6.27;100;93629.72;;;;
2021/01/29 06:29:24;;;;;;;1.1;1;;;;;;;6.22;100;93597.91;;;;
2021/01/29 06:30:29;;;;;;;1.1;1;;;;;;;6.22;100;93597.91;;;;
2021/01/29 06:31:40;;;;;;;1.1;1;;;;;;;6.22;100;93597.91;;;;
2021/01/29 06:33:29;;;;;;;1.1;1;;;;;;;6.22;100;93597.91;;;;
2021/01/29 06:34:53;;;;;;;1.1;1;;;;;;;6.22;100;93597.91;;;;
2021/01/29 06:36:08;;;;;;;1.1;1;;;;;;;6.22;100;93597.91;;;;
2021/01/29 06:37:22;;;;;;;1.1;1;;;;;;;6.22;100;93597.91;;;;
2021/01/29 06:38:34;;;;;;;1.1;1;;;;;;;6.22;100;93597.91;;;;
2021/01/29 06:39:46;;;;;;;1.7;1;;;;;;;6.16;100;93593.02;;;;
2021/01/29 06:41:01;;;;;;;1.7;1;;;;;;;6.16;100;93593.02;;;;
2021/01/29 06:46:39;;;;;;;1.7;1;;;;;;;6.16;100;93593.02;;;;
2021/01/29 06:47:51;;;;;;;1.7;1;;;;;;;6.16;100;93593.02;;;;
2021/01/29 06:49:12;;;;;;;1.7;1;;;;;;;6.16;100;93593.02;;;;
2021/01/29 06:50:31;;;;;;;1.3;0.9;;;;;;;6.09;100;93561.7;;;;
2021/01/29 06:51:52;;;;;;;1.3;0.9;;;;;;;6.09;100;93561.7;;;;
2021/01/29 06:54:12;;;;;;;1.3;0.9;;;;;;;6.09;100;93561.7;;;;
2021/01/29 06:55:35;;;;;;;1.3;0.9;;;;;;;6.09;100;93561.7;;;;
2021/01/29 06:57:23;;;;;;;1.3;0.9;;;;;;;6.09;100;93561.7;;;;
2021/01/29 06:58:43;;;;;;;1.3;0.9;;;;;;;6.09;100;93561.7;;;;
2021/01/29 06:59:57;;;;;;;1.3;0.9;;;;;;;6.09;100;93561.7;;;;
2021/01/29 07:01:28;;;;;;;1.15;1.05;;;;;;;5.96;100;93567.44;;;;
2021/01/29 07:06:48;;;;;;;1.15;1.05;;;;;;;5.96;100;93567.44;;;;
2021/01/29 07:07:59;;;;;;;1.15;1.05;;;;;;;5.96;100;93567.44;;;;
2021/01/29 07:09:12;;;;;;;1.15;1.05;;;;;;;5.96;100;93567.44;;;;
2021/01/29 07:10:22;;;;;;;1.15;1.05;;;;;;;5.96;100;93567.44;;;;
2021/01/29 07:12:42;;;;;;;0.8;0.8;;;;;;;6.01;100;93590.15;;;;
2021/01/29 07:13:58;;;;;;;0.8;0.8;;;;;;;6.01;100;93590.15;;;;
2021/01/29 07:15:14;;;;;;;0.8;0.8;;;;;;;6.01;100;93590.15;;;;
2021/01/29 07:16:28;;;;;;;0.8;0.8;;;;;;;6.01;100;93590.15;;;;
2021/01/29 07:17:43;;;;;;;0.8;0.8;;;;;;;6.01;100;93590.15;;;;
2021/01/29 07:19:03;;;;;;;0.8;0.8;;;;;;;6.01;100;93590.15;;;;
2021/01/29 07:20:17;;;;;;;0.8;0.8;;;;;;;6.01;100;93590.15;;;;
2021/01/29 07:21:31;;;;;;;0.7;0.7;;;;;;;6.17;100;93576.42;;;;
2021/01/29 07:22:44;;;;;;;0.7;0.7;;;;;;;6.17;100;93576.42;;;;
2021/01/29 07:24:12;;;;;;;0.7;0.7;;;;;;;6.17;100;93576.42;;;;
2021/01/29 07:25:30;;;;;;;0.7;0.7;;;;;;;6.17;100;93576.42;;;;
2021/01/29 07:26:37;;;;;;;0.7;0.7;;;;;;;6.17;100;93576.42;;;;
2021/01/29 07:27:57;;;;;;;0.7;0.7;;;;;;;6.17;100;93576.42;;;;
2021/01/29 07:29:10;;;;;;;0.7;0.7;;;;;;;6.17;100;93576.42;;;;
2021/01/29 07:30:26;;;;;;;0.7;0.7;;;;;;;6.17;100;93576.42;;;;
2021/01/29 07:31:47;;;;;;;0.7;0.7;;;;;;;6.17;100;93576.42;;;;
2021/01/29 07:33:00;;;;;;;0.7;0.6;;;;;;;6.34;100;93552.5;;;;
2021/01/29 07:34:10;;;;;;;0.7;0.6;;;;;;;6.34;100;93552.5;;;;
2021/01/29 07:35:23;;;;;;;0.7;0.6;;;;;;;6.34;100;93552.5;;;;
2021/01/29 07:36:30;;;;;;;0.7;0.6;;;;;;;6.34;100;93552.5;;;;
2021/01/29 07:38:03;;;;;;;0.7;0.6;;;;;;;6.34;100;93552.5;;;;
2021/01/29 07:39:19;;;;;;;0.7;0.6;;;;;;;6.34;100;93552.5;;;;
2021/01/29 07:40:39;;;;;;;0.7;0.6;;;;;;;6.34;100;93552.5;;;;
2021/01/29 07:42:59;;;;;;;0.9;0.75;;;;;;;6.67;100;93563.14;;;;
2021/01/29 07:44:19;;;;;;;0.9;0.75;;;;;;;6.67;100;93563.14;;;;
2021/01/29 07:45:30;;;;;;;0.9;0.75;;;;;;;6.67;100;93563.14;;;;
2021/01/29 07:46:42;;;;;;;0.9;0.75;;;;;;;6.67;100;93563.14;;;;
2021/01/29 07:47:53;;;;;;;0.9;0.75;;;;;;;6.67;100;93563.14;;;;
2021/01/29 07:49:15;;;;;;;0.9;0.75;;;;;;;6.67;100;93563.14;;;;
2021/01/29 07:50:28;;;;;;;0.9;0.75;;;;;;;6.67;100;93563.14;;;;
2021/01/29 07:51:32;;;;;;;0.9;0.75;;;;;;;6.67;100;93563.14;;;;
2021/01/29 07:52:38;;;;;;;0.9;0.75;;;;;;;6.67;100;93563.14;;;;
2021/01/29 07:53:46;;;;;;;0.65;0.65;;;;;;;6.97;100;93538.85;;;;
2021/01/29 07:55:04;;;;;;;0.65;0.65;;;;;;;6.97;100;93538.85;;;;
2021/01/29 07:56:18;;;;;;;0.65;0.65;;;;;;;6.97;100;93538.85;;;;
2021/01/29 07:57:38;;;;;;;0.65;0.65;;;;;;;6.97;100;93538.85;;;;
2021/01/29 07:59:00;;;;;;;0.65;0.65;;;;;;;6.97;100;93538.85;;;;
2021/01/29 08:00:26;;;;;;;0.65;0.65;;;;;;;6.97;100;93538.85;;;;
2021/01/29 08:01:44;;;;;;;0.65;0.65;;;;;;;6.97;100;93538.85;;;;
2021/01/29 08:02:54;;;;;;;0.65;0.65;;;;;;;6.97;100;93538.85;;;;
2021/01/29 08:04:14;;;;;;;0.65;0.65;;;;;;;7.27;100;93560.55;;;;